createdAt,value
2023-03-10T00:01:16.708Z,60.92
2023-03-10T00:03:44.826Z,60.95
2023-03-10T00:06:13.929Z,60.96
2023-03-10T00:08:41.596Z,60.83
2023-03-10T00:11:08.522Z,60.25
2023-03-10T00:13:35.268Z,59.81
2023-03-10T00:16:02.368Z,60.04
2023-03-10T00:18:29.265Z,60.13
2023-03-10T00:20:55.909Z,60.11
2023-03-10T00:23:22.948Z,59.86
2023-03-10T00:25:57.279Z,59.76
2023-03-10T00:28:25.220Z,59.70
2023-03-10T00:31:07.076Z,59.34
2023-03-10T00:33:34.695Z,59.44
2023-03-10T00:36:07.770Z,59.58
2023-03-10T00:38:36.147Z,59.69
2023-03-10T00:41:06.077Z,59.68
2023-03-10T00:43:33.932Z,59.97
2023-03-10T00:46:00.721Z,59.73
2023-03-10T00:48:28.509Z,59.95
2023-03-10T00:50:56.269Z,59.99
2023-03-10T00:53:23.464Z,59.83
2023-03-10T00:56:11.939Z,60.18
2023-03-10T00:58:38.662Z,60.20
2023-03-10T01:01:18.138Z,60.11
2023-03-10T01:03:45.963Z,60.23
2023-03-10T01:06:13.224Z,60.36
2023-03-10T01:08:40.157Z,60.59
2023-03-10T01:11:06.909Z,60.72
2023-03-10T01:13:34.250Z,61.08
2023-03-10T01:16:01.383Z,61.84
2023-03-10T01:18:28.440Z,61.99
2023-03-10T01:20:55.106Z,61.62
2023-03-10T01:23:24.298Z,62.31
2023-03-10T01:25:51.836Z,62.24
2023-03-10T01:28:20.047Z,62.71
2023-03-10T01:30:48.304Z,62.68
2023-03-10T01:33:16.004Z,62.92
2023-03-10T01:35:43.699Z,62.60
2023-03-10T01:38:11.390Z,62.94
2023-03-10T01:40:38.975Z,63.20
2023-03-10T01:43:19.320Z,63.66
2023-03-10T01:45:45.940Z,64.15
2023-03-10T01:48:15.044Z,63.96
2023-03-10T01:50:44.644Z,64.43
2023-03-10T01:53:13.945Z,64.54
2023-03-10T01:55:46.018Z,64.66
2023-03-10T01:58:16.143Z,64.29
2023-03-10T02:00:43.531Z,64.00
2023-03-10T02:03:16.980Z,64.04
2023-03-10T02:05:56.730Z,64.03
2023-03-10T02:08:26.549Z,63.88
2023-03-10T02:10:54.111Z,64.06
2023-03-10T02:13:21.781Z,64.15
2023-03-10T02:15:49.120Z,64.12
2023-03-10T02:18:19.547Z,64.37
2023-03-10T02:21:20.593Z,64.06
2023-03-10T02:24:08.424Z,64.22
2023-03-10T02:26:41.376Z,64.20
2023-03-10T02:29:13.279Z,64.07
2023-03-10T02:31:41.421Z,64.23
2023-03-10T02:34:08.598Z,64.31
2023-03-10T02:36:36.474Z,64.48
2023-03-10T02:39:03.898Z,64.25
2023-03-10T02:41:36.528Z,64.15
2023-03-10T02:44:11.440Z,64.28
2023-03-10T02:46:38.686Z,64.33
2023-03-10T02:49:09.981Z,64.29
2023-03-10T02:51:43.534Z,64.20
2023-03-10T02:54:14.267Z,64.32
2023-03-10T02:56:42.555Z,64.82
2023-03-10T02:59:11.017Z,65.01
2023-03-10T03:01:41.817Z,65.15
2023-03-10T03:04:08.894Z,65.16
2023-03-10T03:06:36.056Z,65.05
2023-03-10T03:09:02.926Z,64.86
2023-03-10T03:11:30.152Z,65.10
2023-03-10T03:13:57.500Z,65.30
2023-03-10T03:16:24.579Z,65.32
2023-03-10T03:18:54.463Z,65.20
2023-03-10T03:21:21.608Z,65.01
2023-03-10T03:23:48.788Z,64.98
2023-03-10T03:26:22.993Z,65.08
2023-03-10T03:28:51.781Z,64.80
2023-03-10T03:31:23.621Z,64.73
2023-03-10T03:33:53.314Z,64.56
2023-03-10T03:36:20.916Z,64.52
2023-03-10T03:38:47.646Z,64.85
2023-03-10T03:41:15.212Z,64.50
2023-03-10T03:43:42.765Z,64.85
2023-03-10T03:46:09.583Z,65.01
2023-03-10T03:48:36.353Z,64.98
2023-03-10T03:51:03.537Z,64.94
2023-03-10T03:53:35.481Z,65.12
2023-03-10T03:56:02.821Z,64.83
2023-03-10T03:58:31.396Z,65.01
2023-03-10T04:00:57.978Z,64.84
2023-03-10T04:03:25.372Z,64.89
2023-03-10T04:05:52.649Z,64.66
2023-03-10T04:08:19.904Z,64.43
2023-03-10T04:10:54.686Z,64.37
2023-03-10T04:13:23.802Z,64.23
2023-03-10T04:15:57.789Z,64.02
2023-03-10T04:18:25.603Z,63.90
2023-03-10T04:20:52.495Z,64.01
2023-03-10T04:23:19.926Z,63.99
2023-03-10T04:25:47.052Z,64.21
2023-03-10T04:28:14.308Z,64.45
2023-03-10T04:30:43.360Z,64.48
2023-03-10T04:33:11.676Z,64.04
2023-03-10T04:35:41.955Z,64.27
2023-03-10T04:38:09.350Z,64.43
2023-03-10T04:40:36.199Z,64.34
2023-03-10T04:43:03.270Z,64.16
2023-03-10T04:45:31.423Z,64.50
2023-03-10T04:47:58.565Z,64.15
2023-03-10T04:50:26.013Z,64.38
2023-03-10T04:52:53.076Z,64.15
2023-03-10T04:55:23.305Z,64.20
2023-03-10T04:57:50.659Z,63.99
2023-03-10T05:00:19.453Z,64.02
2023-03-10T05:02:46.524Z,64.36
2023-03-10T05:05:13.542Z,64.42
2023-03-10T05:07:42.632Z,64.72
2023-03-10T05:10:10.914Z,64.55
2023-03-10T05:12:39.429Z,65.07
2023-03-10T05:15:08.074Z,64.84
2023-03-10T05:17:34.718Z,64.94
2023-03-10T05:20:01.784Z,65.10
2023-03-10T05:22:29.230Z,64.75
2023-03-10T05:24:56.161Z,64.71
2023-03-10T05:27:24.131Z,64.74
2023-03-10T05:29:51.292Z,64.50
2023-03-10T05:32:21.030Z,64.52
2023-03-10T05:34:48.247Z,64.55
2023-03-10T05:37:15.292Z,64.47
2023-03-10T05:39:43.461Z,64.77
2023-03-10T05:42:12.251Z,65.03
2023-03-10T05:44:39.613Z,64.88
2023-03-10T05:47:07.436Z,64.95
2023-03-10T05:49:36.682Z,64.64
2023-03-10T05:52:04.450Z,64.95
2023-03-10T05:54:31.685Z,64.27
2023-03-10T05:56:58.455Z,64.27
2023-03-10T05:59:26.916Z,64.37
2023-03-10T06:01:53.799Z,64.08
2023-03-10T06:04:20.539Z,64.21
2023-03-10T06:06:47.304Z,63.51
2023-03-10T06:09:14.030Z,63.60
2023-03-10T06:11:40.752Z,63.69
2023-03-10T06:14:07.364Z,63.22
2023-03-10T06:16:34.022Z,63.32
2023-03-10T06:19:00.944Z,62.84
2023-03-10T06:21:28.837Z,62.94
2023-03-10T06:23:56.190Z,62.78
2023-03-10T06:26:23.796Z,62.54
2023-03-10T06:28:50.559Z,62.23
2023-03-10T06:31:20.995Z,61.89
2023-03-10T06:33:47.910Z,61.66
2023-03-10T06:36:16.263Z,62.03
2023-03-10T06:38:42.963Z,61.79
2023-03-10T06:41:09.499Z,61.54
2023-03-10T06:43:36.647Z,61.25
2023-03-10T06:46:08.796Z,60.84
2023-03-10T06:48:36.805Z,60.65
2023-03-10T06:51:08.144Z,60.29
2023-03-10T06:53:35.377Z,59.25
2023-03-10T06:56:06.061Z,58.06
2023-03-10T06:58:35.421Z,58.16
2023-03-10T07:01:03.157Z,57.49
2023-03-10T07:03:30.326Z,56.99
2023-03-10T07:05:58.818Z,55.56
2023-03-10T07:08:29.282Z,54.06
2023-03-10T07:10:56.600Z,51.73
2023-03-10T07:13:24.148Z,49.66
2023-03-10T07:15:51.430Z,48.35
2023-03-10T07:18:18.433Z,47.43
2023-03-10T07:20:47.497Z,47.25
2023-03-10T07:23:15.258Z,45.38
2023-03-10T07:25:42.048Z,44.25
2023-03-10T07:28:08.931Z,43.83
2023-03-10T07:30:37.223Z,43.45
2023-03-10T07:33:04.244Z,42.53
2023-03-10T07:35:30.798Z,42.39
2023-03-10T07:37:57.624Z,42.50
2023-03-10T07:40:24.537Z,42.45
2023-03-10T07:42:54.048Z,41.82
2023-03-10T07:45:22.317Z,41.92
2023-03-10T07:47:53.787Z,41.13
2023-03-10T07:50:21.765Z,40.48
2023-03-10T07:52:50.017Z,40.34
2023-03-10T07:55:17.913Z,40.46
2023-03-10T07:57:44.740Z,39.60
2023-03-10T08:00:12.490Z,38.90
2023-03-10T08:02:40.746Z,38.39
2023-03-10T08:05:10.125Z,38.50
2023-03-10T08:07:37.832Z,38.76
2023-03-10T08:10:05.337Z,38.95
2023-03-10T08:12:33.159Z,39.76
2023-03-10T08:14:59.978Z,40.32
2023-03-10T08:17:30.241Z,41.17
2023-03-10T08:19:58.006Z,41.40
2023-03-10T08:22:25.874Z,41.80
2023-03-10T08:24:53.410Z,42.34
2023-03-10T08:27:21.180Z,42.22
2023-03-10T08:29:47.826Z,42.63
2023-03-10T08:32:14.718Z,42.43
2023-03-10T08:34:42.621Z,42.90
2023-03-10T08:37:09.805Z,42.67
2023-03-10T08:39:36.838Z,42.52
2023-03-10T08:42:03.632Z,42.56
2023-03-10T08:44:30.238Z,42.54
2023-03-10T08:46:57.251Z,42.25
2023-03-10T08:49:23.946Z,41.97
2023-03-10T08:51:50.657Z,41.72
2023-03-10T08:54:20.183Z,41.67
2023-03-10T08:56:47.832Z,41.40
2023-03-10T08:59:15.157Z,41.25
2023-03-10T09:01:41.855Z,40.88
2023-03-10T09:04:10.039Z,41.09
2023-03-10T09:06:37.979Z,40.24
2023-03-10T09:09:06.445Z,39.13
2023-03-10T09:11:38.444Z,37.90
2023-03-10T09:14:08.402Z,37.50
2023-03-10T09:16:36.000Z,36.71
2023-03-10T09:19:03.397Z,34.46
2023-03-10T09:21:33.546Z,33.56
2023-03-10T09:24:01.540Z,33.19
2023-03-10T09:26:28.134Z,31.34
2023-03-10T09:28:57.010Z,30.17
2023-03-10T09:31:32.287Z,29.18
2023-03-10T09:33:58.949Z,28.62
2023-03-10T09:36:25.798Z,28.95
2023-03-10T09:38:52.470Z,28.70
2023-03-10T09:41:52.530Z,28.38
2023-03-10T09:44:25.668Z,28.80
2023-03-10T09:47:10.632Z,28.32
2023-03-10T09:49:39.445Z,28.33
2023-03-10T09:52:20.762Z,27.88
2023-03-10T09:55:16.561Z,27.63
2023-03-10T09:57:47.207Z,26.62
2023-03-10T10:00:23.816Z,26.33
2023-03-10T10:02:59.425Z,25.89
2023-03-10T10:05:32.405Z,25.92
2023-03-10T10:08:04.493Z,26.16
2023-03-10T10:10:36.332Z,26.54
2023-03-10T10:13:14.445Z,27.12
2023-03-10T10:15:45.858Z,27.93
2023-03-10T10:18:19.593Z,28.77
2023-03-10T10:20:48.140Z,28.95
2023-03-10T10:23:20.945Z,28.43
2023-03-10T10:25:50.287Z,28.13
2023-03-10T10:28:29.500Z,27.91
2023-03-10T10:31:11.147Z,28.44
2023-03-10T10:33:53.187Z,28.76
2023-03-10T10:36:19.972Z,28.91
2023-03-10T10:38:52.182Z,28.84
2023-03-10T10:41:30.783Z,30.07
2023-03-10T10:44:09.202Z,30.93
2023-03-10T10:46:35.891Z,33.38
2023-03-10T10:49:18.449Z,35.39
2023-03-10T10:51:58.961Z,36.51
2023-03-10T10:54:32.005Z,37.91
2023-03-10T10:57:01.034Z,38.25
2023-03-10T10:59:32.998Z,38.39
2023-03-10T11:02:22.104Z,38.30
2023-03-10T11:04:49.396Z,38.88
2023-03-10T11:07:18.933Z,37.55
2023-03-10T11:09:47.359Z,35.83
2023-03-10T11:12:25.374Z,35.31
2023-03-10T11:15:06.389Z,33.79
2023-03-10T11:17:39.625Z,33.29
2023-03-10T11:20:30.253Z,31.38
2023-03-10T11:23:05.745Z,30.00
2023-03-10T11:26:13.793Z,31.17
2023-03-10T11:28:56.764Z,31.64
2023-03-10T11:31:54.658Z,32.37
2023-03-10T11:34:30.508Z,33.36
2023-03-10T11:36:57.476Z,34.35
2023-03-10T11:39:36.693Z,34.72
2023-03-10T11:42:23.253Z,35.38
2023-03-10T11:45:20.217Z,32.54
2023-03-10T11:48:08.504Z,32.35
2023-03-10T11:50:59.239Z,32.72
2023-03-10T11:53:44.810Z,30.48
2023-03-10T11:56:16.803Z,31.40
2023-03-10T11:59:13.560Z,31.97
2023-03-10T12:01:55.369Z,32.73
2023-03-10T12:04:40.294Z,34.41
2023-03-10T12:07:10.187Z,34.64
2023-03-10T12:09:45.961Z,35.61
2023-03-10T12:12:16.808Z,36.83
2023-03-10T12:14:45.301Z,37.30
2023-03-10T12:17:14.525Z,37.12
2023-03-10T12:20:15.962Z,37.94
2023-03-10T12:22:50.874Z,38.33
2023-03-10T12:25:29.455Z,38.21
2023-03-10T12:28:17.754Z,37.80
2023-03-10T12:31:03.713Z,37.40
2023-03-10T12:33:30.445Z,36.58
2023-03-10T12:35:57.032Z,36.39
2023-03-10T12:38:42.835Z,36.47
2023-03-10T12:41:10.154Z,36.08
2023-03-10T12:43:36.812Z,36.21
2023-03-10T12:46:07.422Z,36.21
2023-03-10T12:48:38.529Z,36.96
2023-03-10T12:51:12.428Z,37.57
2023-03-10T12:53:58.146Z,37.88
2023-03-10T12:56:41.568Z,38.39
2023-03-10T12:59:39.530Z,38.85
2023-03-10T13:02:33.869Z,39.15
2023-03-10T13:05:05.925Z,39.31
2023-03-10T13:07:35.135Z,39.37
2023-03-10T13:10:02.942Z,39.69
2023-03-10T13:12:37.074Z,39.98
2023-03-10T13:15:07.703Z,39.75
2023-03-10T13:17:34.351Z,40.09
2023-03-10T13:20:18.276Z,40.31
2023-03-10T13:22:55.595Z,39.98
2023-03-10T13:25:22.870Z,40.14
2023-03-10T13:27:49.797Z,40.55
2023-03-10T13:30:22.419Z,40.32
2023-03-10T13:33:01.740Z,40.20
2023-03-10T13:35:37.316Z,40.57
2023-03-10T13:38:11.762Z,41.22
2023-03-10T13:40:44.577Z,41.47
2023-03-10T13:43:33.544Z,41.14
2023-03-10T13:46:02.626Z,41.44
2023-03-10T13:48:31.782Z,41.55
2023-03-10T13:51:16.692Z,41.87
2023-03-10T13:53:44.783Z,42.36
2023-03-10T13:56:18.853Z,42.44
2023-03-10T13:58:46.868Z,42.82
2023-03-10T14:01:24.155Z,42.67
2023-03-10T14:03:56.056Z,42.55
2023-03-10T14:06:23.116Z,42.65
2023-03-10T14:08:50.711Z,42.37
2023-03-10T14:11:21.683Z,42.24
2023-03-10T14:13:48.727Z,42.38
2023-03-10T14:16:15.275Z,42.59
2023-03-10T14:18:43.104Z,42.52
2023-03-10T14:22:02.941Z,42.56
2023-03-10T14:24:29.557Z,42.62
2023-03-10T14:27:00.258Z,41.93
2023-03-10T14:29:26.972Z,42.00
2023-03-10T14:31:53.723Z,41.77
2023-03-10T14:34:22.831Z,40.94
2023-03-10T14:36:49.455Z,41.12
2023-03-10T14:39:16.136Z,41.30
2023-03-10T14:41:42.727Z,41.33
2023-03-10T14:44:10.026Z,41.46
2023-03-10T14:46:36.913Z,41.60
2023-03-10T14:49:07.284Z,41.96
2023-03-10T14:51:36.279Z,41.92
2023-03-10T14:54:03.514Z,42.30
2023-03-10T14:56:32.062Z,42.56
2023-03-10T14:59:01.546Z,42.61
2023-03-10T15:01:28.893Z,42.97
2023-03-10T15:03:55.752Z,42.43
2023-03-10T15:06:22.569Z,42.62
2023-03-10T15:08:49.141Z,42.87
2023-03-10T15:11:24.036Z,42.82
2023-03-10T15:13:57.797Z,42.85
2023-03-10T15:16:24.645Z,43.08
2023-03-10T15:18:52.547Z,43.44
2023-03-10T15:21:19.769Z,43.35
2023-03-10T15:23:46.672Z,43.35
2023-03-10T15:26:13.457Z,43.29
2023-03-10T15:28:40.192Z,43.67
2023-03-10T15:31:06.983Z,43.70
2023-03-10T15:33:33.614Z,43.89
2023-03-10T15:36:00.329Z,43.98
2023-03-10T15:38:27.260Z,44.17
2023-03-10T15:40:53.932Z,43.82
2023-03-10T15:43:20.539Z,44.16
2023-03-10T15:45:48.737Z,44.64
2023-03-10T15:48:16.506Z,44.27
2023-03-10T15:50:46.403Z,44.70
2023-03-10T15:53:13.662Z,44.97
2023-03-10T15:55:41.866Z,45.80
2023-03-10T15:58:10.395Z,46.31
2023-03-10T16:00:37.012Z,47.28
2023-03-10T16:03:03.611Z,47.85
2023-03-10T16:05:30.262Z,48.31
2023-03-10T16:07:56.967Z,48.48
2023-03-10T16:10:23.603Z,48.17
2023-03-10T16:12:50.938Z,48.52
2023-03-10T16:15:18.473Z,48.95
2023-03-10T16:17:45.424Z,49.21
2023-03-10T16:20:13.224Z,49.98
2023-03-10T16:22:42.329Z,49.79
2023-03-10T16:25:15.129Z,49.46
2023-03-10T16:27:43.882Z,49.65
2023-03-10T16:30:12.637Z,49.18
2023-03-10T16:32:39.456Z,49.45
2023-03-10T16:35:07.370Z,49.84
2023-03-10T16:37:34.410Z,49.72
2023-03-10T16:40:01.471Z,49.57
2023-03-10T16:42:28.346Z,49.46
2023-03-10T16:44:56.251Z,49.18
2023-03-10T16:47:23.009Z,49.01
2023-03-10T16:49:49.804Z,49.04
2023-03-10T16:52:16.616Z,48.83
2023-03-10T16:54:45.116Z,49.11
2023-03-10T16:57:13.461Z,49.27
2023-03-10T16:59:41.854Z,49.12
2023-03-10T17:02:18.134Z,49.03
2023-03-10T17:04:45.252Z,49.37
2023-03-10T17:07:11.959Z,49.58
2023-03-10T17:09:38.707Z,50.02
2023-03-10T17:12:06.448Z,50.03
2023-03-10T17:14:33.244Z,50.40
2023-03-10T17:17:00.854Z,50.28
2023-03-10T17:19:30.506Z,50.21
2023-03-10T17:21:58.427Z,50.36
2023-03-10T17:24:25.969Z,50.61
2023-03-10T17:26:53.026Z,50.31
2023-03-10T17:29:19.744Z,50.25
2023-03-10T17:31:50.921Z,50.52
2023-03-10T17:34:19.372Z,51.07
2023-03-10T17:36:49.084Z,51.36
2023-03-10T17:39:18.951Z,51.45
2023-03-10T17:41:47.178Z,51.73
2023-03-10T17:44:14.592Z,51.88
2023-03-10T17:46:41.521Z,52.04
2023-03-10T17:49:11.681Z,52.15
2023-03-10T17:51:42.881Z,52.38
2023-03-10T17:54:13.425Z,52.76
2023-03-10T17:56:40.480Z,52.93
2023-03-10T17:59:10.156Z,52.89
2023-03-10T18:01:36.760Z,53.10
2023-03-10T18:04:03.496Z,52.98
2023-03-10T18:06:33.936Z,53.08
2023-03-10T18:09:04.068Z,52.63
2023-03-10T18:11:32.235Z,52.66
2023-03-10T18:14:02.397Z,52.67
2023-03-10T18:16:34.550Z,52.51
2023-03-10T18:19:01.278Z,52.61
2023-03-10T18:21:28.076Z,52.38
2023-03-10T18:23:55.198Z,52.00
2023-03-10T18:26:28.973Z,52.01
2023-03-10T18:28:56.474Z,51.61
2023-03-10T18:31:26.968Z,51.53
2023-03-10T18:33:54.487Z,51.14
2023-03-10T18:36:23.485Z,50.63
2023-03-10T18:38:51.172Z,50.53
2023-03-10T18:41:19.677Z,49.93
2023-03-10T18:43:46.460Z,49.73
2023-03-10T18:46:13.658Z,49.26
2023-03-10T18:48:41.161Z,48.97
2023-03-10T18:51:07.900Z,48.95
2023-03-10T18:53:34.496Z,48.77
2023-03-10T18:56:01.137Z,49.00
2023-03-10T18:58:29.232Z,48.93
2023-03-10T19:00:56.221Z,48.71
2023-03-10T19:03:22.842Z,48.72
2023-03-10T19:05:53.692Z,48.47
2023-03-10T19:08:26.394Z,48.74
2023-03-10T19:10:55.430Z,49.06
2023-03-10T19:13:23.240Z,49.07
2023-03-10T19:15:50.385Z,48.94
2023-03-10T19:18:18.052Z,49.24
2023-03-10T19:20:45.955Z,48.93
2023-03-10T19:23:14.096Z,48.64
2023-03-10T19:25:41.023Z,48.07
2023-03-10T19:28:07.881Z,47.93
2023-03-10T19:30:35.323Z,48.12
2023-03-10T19:33:02.364Z,48.27
2023-03-10T19:35:29.036Z,48.27
2023-03-10T19:37:59.935Z,48.05
2023-03-10T19:40:26.785Z,48.34
2023-03-10T19:42:53.622Z,48.62
2023-03-10T19:45:20.270Z,48.53
2023-03-10T19:47:46.956Z,48.62
2023-03-10T19:50:16.614Z,48.56
2023-03-10T19:52:48.600Z,48.55
2023-03-10T19:55:18.961Z,48.70
2023-03-10T19:57:47.996Z,48.63
2023-03-10T20:00:16.775Z,49.03
2023-03-10T20:02:44.351Z,49.22
2023-03-10T20:05:14.225Z,49.46
2023-03-10T20:07:43.666Z,49.46
2023-03-10T20:10:10.783Z,49.22
2023-03-10T20:12:37.522Z,49.34
2023-03-10T20:15:04.972Z,49.35
2023-03-10T20:17:31.660Z,49.39
2023-03-10T20:19:58.470Z,49.26
2023-03-10T20:22:25.010Z,49.40
2023-03-10T20:24:52.241Z,49.20
2023-03-10T20:27:18.926Z,49.00
2023-03-10T20:29:45.654Z,49.10
2023-03-10T20:32:12.541Z,49.10
2023-03-10T20:34:40.688Z,48.87
2023-03-10T20:37:07.713Z,48.91
2023-03-10T20:39:34.378Z,48.67
2023-03-10T20:42:00.991Z,49.51
2023-03-10T20:44:27.725Z,50.17
2023-03-10T20:46:54.370Z,51.03
2023-03-10T20:49:23.443Z,51.75
2023-03-10T20:51:50.227Z,52.09
2023-03-10T20:54:17.728Z,52.19
2023-03-10T20:56:44.362Z,52.36
2023-03-10T20:59:10.947Z,52.71
2023-03-10T21:01:41.672Z,52.89
2023-03-10T21:04:08.816Z,52.63
2023-03-10T21:06:36.796Z,53.02
2023-03-10T21:09:05.201Z,53.05
2023-03-10T21:11:33.848Z,52.91
2023-03-10T21:14:00.702Z,52.93
2023-03-10T21:16:27.662Z,52.69
2023-03-10T21:18:54.406Z,52.77
2023-03-10T21:21:21.034Z,51.95
2023-03-10T21:23:47.873Z,51.58
2023-03-10T21:26:18.187Z,51.70
2023-03-10T21:28:45.800Z,51.56
2023-03-10T21:31:14.223Z,51.31
2023-03-10T21:33:41.112Z,51.66
2023-03-10T21:36:14.761Z,52.35
2023-03-10T21:38:41.953Z,51.77
2023-03-10T21:41:09.014Z,51.76
2023-03-10T21:43:35.728Z,51.80
2023-03-10T21:46:02.534Z,51.87
2023-03-10T21:48:29.374Z,51.53
2023-03-10T21:50:56.187Z,51.18
2023-03-10T21:53:25.901Z,50.84
2023-03-10T21:55:53.773Z,50.87
2023-03-10T21:58:22.759Z,50.73
2023-03-10T22:00:49.560Z,51.38
2023-03-10T22:03:21.550Z,51.36
2023-03-10T22:05:49.186Z,50.98
2023-03-10T22:08:15.966Z,51.01
2023-03-10T22:10:42.592Z,50.46
2023-03-10T22:13:09.223Z,50.52
2023-03-10T22:15:35.843Z,50.35
2023-03-10T22:18:03.058Z,50.35
2023-03-10T22:20:29.988Z,50.40
2023-03-10T22:22:57.118Z,50.38
2023-03-10T22:25:24.478Z,51.00
2023-03-10T22:27:53.706Z,51.62
2023-03-10T22:30:21.852Z,51.81
2023-03-10T22:32:48.960Z,52.00
2023-03-10T22:35:16.125Z,52.08
2023-03-10T22:37:43.293Z,52.06
2023-03-10T22:40:15.616Z,52.13
2023-03-10T22:42:43.477Z,52.15
2023-03-10T22:45:25.136Z,51.93
2023-03-10T22:47:54.267Z,51.90
2023-03-10T22:50:39.905Z,52.21
2023-03-10T22:53:11.613Z,52.12
2023-03-10T22:55:38.298Z,51.51
2023-03-10T22:58:06.485Z,51.38
2023-03-10T23:00:34.109Z,51.76
2023-03-10T23:03:01.697Z,51.55
2023-03-10T23:05:28.668Z,51.88
2023-03-10T23:07:56.323Z,51.35
2023-03-10T23:10:26.104Z,51.61
2023-03-10T23:12:54.585Z,51.60
2023-03-10T23:15:25.689Z,51.53
2023-03-10T23:17:53.880Z,51.60
2023-03-10T23:20:26.156Z,52.31
2023-03-10T23:22:54.886Z,52.69
2023-03-10T23:25:29.204Z,53.09
2023-03-10T23:27:56.698Z,53.10
2023-03-10T23:30:24.590Z,53.67
2023-03-10T23:32:52.271Z,53.41
2023-03-10T23:35:23.196Z,53.33
2023-03-10T23:37:49.897Z,53.55
2023-03-10T23:40:19.080Z,53.70
2023-03-10T23:42:46.797Z,53.97
2023-03-10T23:45:16.702Z,53.79
2023-03-10T23:47:44.140Z,53.71
2023-03-10T23:50:22.620Z,54.11
2023-03-10T23:52:50.341Z,54.06
2023-03-10T23:55:24.126Z,54.03
2023-03-10T23:57:50.855Z,54.38
